sensor_id;sensor_type;location;lat;lon;timestamp;temperature;humidity
12911;DHT22;6523;49.758;6.120;2022-11-13T00:00:28;4.60;99.90
12911;DHT22;6523;49.758;6.120;2022-11-13T00:02:54;4.60;99.90
12911;DHT22;6523;49.758;6.120;2022-11-13T00:05:19;4.50;99.90
12911;DHT22;6523;49.758;6.120;2022-11-13T00:07:45;4.50;99.90
12911;DHT22;6523;49.758;6.120;2022-11-13T00:10:10;4.40;99.90
12911;DHT22;6523;49.758;6.120;2022-11-13T00:12:36;4.40;99.90
12911;DHT22;6523;49.758;6.120;2022-11-13T00:15:02;4.40;99.90
12911;DHT22;6523;49.758;6.120;2022-11-13T00:17:28;4.40;99.90
12911;DHT22;6523;49.758;6.120;2022-11-13T00:19:54;4.40;99.90
12911;DHT22;6523;49.758;6.120;2022-11-13T00:22:20;4.40;99.90
12911;DHT22;6523;49.758;6.120;2022-11-13T00:24:45;4.50;99.90
12911;DHT22;6523;49.758;6.120;2022-11-13T00:27:11;4.50;99.90
12911;DHT22;6523;49.758;6.120;2022-11-13T00:29:37;4.60;99.90
12911;DHT22;6523;49.758;6.120;2022-11-13T00:32:03;4.60;99.90
12911;DHT22;6523;49.758;6.120;2022-11-13T00:34:29;4.60;99.90
12911;DHT22;6523;49.758;6.120;2022-11-13T00:36:54;4.50;99.90
12911;DHT22;6523;49.758;6.120;2022-11-13T00:39:20;4.50;99.90
12911;DHT22;6523;49.758;6.120;2022-11-13T00:41:46;4.50;99.90
12911;DHT22;6523;49.758;6.120;2022-11-13T00:44:11;4.40;99.90
12911;DHT22;6523;49.758;6.120;2022-11-13T00:46:37;4.50;99.90
12911;DHT22;6523;49.758;6.120;2022-11-13T00:49:03;4.60;99.90
12911;DHT22;6523;49.758;6.120;2022-11-13T00:51:28;4.50;99.90
12911;DHT22;6523;49.758;6.120;2022-11-13T00:53:54;4.50;99.90
12911;DHT22;6523;49.758;6.120;2022-11-13T00:56:20;4.40;99.90
12911;DHT22;6523;49.758;6.120;2022-11-13T00:58:45;4.30;99.90
12911;DHT22;6523;49.758;6.120;2022-11-13T01:01:13;4.10;99.90
12911;DHT22;6523;49.758;6.120;2022-11-13T01:03:39;4.10;99.90
12911;DHT22;6523;49.758;6.120;2022-11-13T01:06:14;4.20;99.90
12911;DHT22;6523;49.758;6.120;2022-11-13T01:08:41;4.20;99.90
12911;DHT22;6523;49.758;6.120;2022-11-13T01:11:12;4.30;99.90
12911;DHT22;6523;49.758;6.120;2022-11-13T01:13:39;4.30;99.90
12911;DHT22;6523;49.758;6.120;2022-11-13T01:16:07;4.30;99.90
12911;DHT22;6523;49.758;6.120;2022-11-13T01:18:34;4.40;99.90
12911;DHT22;6523;49.758;6.120;2022-11-13T01:21:13;4.40;99.90
12911;DHT22;6523;49.758;6.120;2022-11-13T01:23:40;4.30;99.90
12911;DHT22;6523;49.758;6.120;2022-11-13T01:26:15;4.30;99.90
12911;DHT22;6523;49.758;6.120;2022-11-13T01:28:42;4.20;99.90
12911;DHT22;6523;49.758;6.120;2022-11-13T01:31:11;4.10;99.90
12911;DHT22;6523;49.758;6.120;2022-11-13T01:33:37;4.10;99.90
12911;DHT22;6523;49.758;6.120;2022-11-13T01:36:09;4.10;99.90
12911;DHT22;6523;49.758;6.120;2022-11-13T01:38:35;4.10;99.90
12911;DHT22;6523;49.758;6.120;2022-11-13T01:41:01;4.10;99.90
12911;DHT22;6523;49.758;6.120;2022-11-13T01:43:33;4.20;99.90
12911;DHT22;6523;49.758;6.120;2022-11-13T01:48:33;4.00;99.90
12911;DHT22;6523;49.758;6.120;2022-11-13T01:51:00;4.00;99.90
12911;DHT22;6523;49.758;6.120;2022-11-13T01:53:25;4.00;99.90
12911;DHT22;6523;49.758;6.120;2022-11-13T01:55:52;4.00;99.90
12911;DHT22;6523;49.758;6.120;2022-11-13T01:58:18;4.00;99.90
12911;DHT22;6523;49.758;6.120;2022-11-13T02:00:44;4.00;99.90
12911;DHT22;6523;49.758;6.120;2022-11-13T02:03:09;3.80;99.90
12911;DHT22;6523;49.758;6.120;2022-11-13T02:05:35;3.80;99.90
12911;DHT22;6523;49.758;6.120;2022-11-13T02:08:02;3.90;99.90
12911;DHT22;6523;49.758;6.120;2022-11-13T02:10:27;3.90;99.90
12911;DHT22;6523;49.758;6.120;2022-11-13T02:12:53;3.50;99.90
12911;DHT22;6523;49.758;6.120;2022-11-13T02:15:21;3.40;99.90
12911;DHT22;6523;49.758;6.120;2022-11-13T02:17:55;3.20;99.90
12911;DHT22;6523;49.758;6.120;2022-11-13T02:25:53;3.40;99.90
12911;DHT22;6523;49.758;6.120;2022-11-13T02:28:19;3.70;99.90
12911;DHT22;6523;49.758;6.120;2022-11-13T02:30:45;3.60;99.90
12911;DHT22;6523;49.758;6.120;2022-11-13T02:33:27;3.60;99.90
12911;DHT22;6523;49.758;6.120;2022-11-13T02:35:52;3.70;99.90
12911;DHT22;6523;49.758;6.120;2022-11-13T02:38:18;3.70;99.90
12911;DHT22;6523;49.758;6.120;2022-11-13T02:40:43;3.70;99.90
12911;DHT22;6523;49.758;6.120;2022-11-13T02:43:09;3.70;99.90
12911;DHT22;6523;49.758;6.120;2022-11-13T02:45:35;3.60;99.90
12911;DHT22;6523;49.758;6.120;2022-11-13T02:48:04;3.70;99.90
12911;DHT22;6523;49.758;6.120;2022-11-13T02:50:30;3.60;99.90
12911;DHT22;6523;49.758;6.120;2022-11-13T02:52:56;3.60;99.90
12911;DHT22;6523;49.758;6.120;2022-11-13T02:55:21;3.60;99.90
12911;DHT22;6523;49.758;6.120;2022-11-13T02:57:47;3.60;99.90
12911;DHT22;6523;49.758;6.120;2022-11-13T03:00:13;3.50;99.90
12911;DHT22;6523;49.758;6.120;2022-11-13T03:02:39;3.50;99.90
12911;DHT22;6523;49.758;6.120;2022-11-13T03:05:05;3.50;99.90
12911;DHT22;6523;49.758;6.120;2022-11-13T03:07:30;3.50;99.90
12911;DHT22;6523;49.758;6.120;2022-11-13T03:09:56;3.50;99.90
12911;DHT22;6523;49.758;6.120;2022-11-13T03:12:22;3.30;99.90
12911;DHT22;6523;49.758;6.120;2022-11-13T03:14:47;3.00;99.90
12911;DHT22;6523;49.758;6.120;2022-11-13T03:17:13;3.10;99.90
12911;DHT22;6523;49.758;6.120;2022-11-13T03:19:39;3.30;99.90
12911;DHT22;6523;49.758;6.120;2022-11-13T03:22:04;3.40;99.90
12911;DHT22;6523;49.758;6.120;2022-11-13T03:24:30;3.40;99.90
12911;DHT22;6523;49.758;6.120;2022-11-13T03:26:55;3.30;99.90
12911;DHT22;6523;49.758;6.120;2022-11-13T03:29:21;3.30;99.90
12911;DHT22;6523;49.758;6.120;2022-11-13T03:31:46;3.30;99.90
12911;DHT22;6523;49.758;6.120;2022-11-13T03:34:12;3.40;99.90
12911;DHT22;6523;49.758;6.120;2022-11-13T03:36:38;3.10;99.90
12911;DHT22;6523;49.758;6.120;2022-11-13T03:39:04;3.10;99.90
12911;DHT22;6523;49.758;6.120;2022-11-13T03:41:29;2.70;99.90
12911;DHT22;6523;49.758;6.120;2022-11-13T03:43:55;2.50;99.90
12911;DHT22;6523;49.758;6.120;2022-11-13T03:46:20;2.50;99.90
12911;DHT22;6523;49.758;6.120;2022-11-13T03:48:46;2.60;99.90
12911;DHT22;6523;49.758;6.120;2022-11-13T03:51:12;2.90;99.90
12911;DHT22;6523;49.758;6.120;2022-11-13T03:53:37;2.90;99.90
12911;DHT22;6523;49.758;6.120;2022-11-13T03:56:03;2.90;99.90
12911;DHT22;6523;49.758;6.120;2022-11-13T03:58:29;3.00;99.90
12911;DHT22;6523;49.758;6.120;2022-11-13T04:00:55;2.70;99.90
12911;DHT22;6523;49.758;6.120;2022-11-13T04:03:20;2.70;99.90
12911;DHT22;6523;49.758;6.120;2022-11-13T04:05:48;2.80;99.90
12911;DHT22;6523;49.758;6.120;2022-11-13T04:08:14;2.80;99.90
12911;DHT22;6523;49.758;6.120;2022-11-13T04:10:40;2.80;99.90
12911;DHT22;6523;49.758;6.120;2022-11-13T04:13:06;2.90;99.90
12911;DHT22;6523;49.758;6.120;2022-11-13T04:15:32;2.90;99.90
12911;DHT22;6523;49.758;6.120;2022-11-13T04:17:58;2.90;99.90
12911;DHT22;6523;49.758;6.120;2022-11-13T04:20:24;2.90;99.90
12911;DHT22;6523;49.758;6.120;2022-11-13T04:22:49;2.90;99.90
12911;DHT22;6523;49.758;6.120;2022-11-13T04:25:15;2.90;99.90
12911;DHT22;6523;49.758;6.120;2022-11-13T04:27:41;3.00;99.90
12911;DHT22;6523;49.758;6.120;2022-11-13T04:30:07;2.90;99.90
12911;DHT22;6523;49.758;6.120;2022-11-13T04:32:33;2.90;99.90
12911;DHT22;6523;49.758;6.120;2022-11-13T04:34:59;2.90;99.90
12911;DHT22;6523;49.758;6.120;2022-11-13T04:37:24;2.80;99.90
12911;DHT22;6523;49.758;6.120;2022-11-13T04:39:50;2.80;99.90
12911;DHT22;6523;49.758;6.120;2022-11-13T04:42:16;2.80;99.90
12911;DHT22;6523;49.758;6.120;2022-11-13T04:45:00;2.90;99.90
12911;DHT22;6523;49.758;6.120;2022-11-13T04:47:26;2.90;99.90
12911;DHT22;6523;49.758;6.120;2022-11-13T04:49:52;2.90;99.90
12911;DHT22;6523;49.758;6.120;2022-11-13T04:52:17;2.80;99.90
12911;DHT22;6523;49.758;6.120;2022-11-13T04:54:43;2.80;99.90
12911;DHT22;6523;49.758;6.120;2022-11-13T04:57:08;2.70;99.90
12911;DHT22;6523;49.758;6.120;2022-11-13T04:59:34;2.80;99.90
12911;DHT22;6523;49.758;6.120;2022-11-13T05:02:00;2.90;99.90
12911;DHT22;6523;49.758;6.120;2022-11-13T05:04:25;2.90;99.90
12911;DHT22;6523;49.758;6.120;2022-11-13T05:06:51;2.80;99.90
12911;DHT22;6523;49.758;6.120;2022-11-13T05:09:16;2.80;99.90
12911;DHT22;6523;49.758;6.120;2022-11-13T05:11:42;2.90;99.90
12911;DHT22;6523;49.758;6.120;2022-11-13T05:14:10;2.80;99.90
12911;DHT22;6523;49.758;6.120;2022-11-13T05:16:36;2.70;99.90
12911;DHT22;6523;49.758;6.120;2022-11-13T05:19:02;2.70;99.90
12911;DHT22;6523;49.758;6.120;2022-11-13T05:21:35;2.80;99.90
12911;DHT22;6523;49.758;6.120;2022-11-13T05:24:01;2.50;99.90
12911;DHT22;6523;49.758;6.120;2022-11-13T05:26:27;2.50;99.90
12911;DHT22;6523;49.758;6.120;2022-11-13T05:28:56;2.50;99.90
12911;DHT22;6523;49.758;6.120;2022-11-13T05:31:22;2.50;99.90
12911;DHT22;6523;49.758;6.120;2022-11-13T05:33:48;2.60;99.90
12911;DHT22;6523;49.758;6.120;2022-11-13T05:36:15;2.60;99.90
12911;DHT22;6523;49.758;6.120;2022-11-13T05:38:42;2.60;99.90
12911;DHT22;6523;49.758;6.120;2022-11-13T05:41:10;2.50;99.90
12911;DHT22;6523;49.758;6.120;2022-11-13T05:43:37;2.50;99.90
12911;DHT22;6523;49.758;6.120;2022-11-13T05:46:05;2.50;99.90
12911;DHT22;6523;49.758;6.120;2022-11-13T05:48:33;2.40;99.90
12911;DHT22;6523;49.758;6.120;2022-11-13T05:51:04;2.40;99.90
12911;DHT22;6523;49.758;6.120;2022-11-13T05:53:31;2.50;99.90
12911;DHT22;6523;49.758;6.120;2022-11-13T05:56:02;2.50;99.90
12911;DHT22;6523;49.758;6.120;2022-11-13T05:58:28;2.40;99.90
12911;DHT22;6523;49.758;6.120;2022-11-13T06:01:14;2.50;99.90
12911;DHT22;6523;49.758;6.120;2022-11-13T06:03:40;2.40;99.90
12911;DHT22;6523;49.758;6.120;2022-11-13T06:06:08;2.40;99.90
12911;DHT22;6523;49.758;6.120;2022-11-13T06:08:34;2.40;99.90
12911;DHT22;6523;49.758;6.120;2022-11-13T06:11:05;2.30;99.90
12911;DHT22;6523;49.758;6.120;2022-11-13T06:13:31;2.30;99.90
12911;DHT22;6523;49.758;6.120;2022-11-13T06:18:30;2.30;99.90
12911;DHT22;6523;49.758;6.120;2022-11-13T06:21:08;2.30;99.90
12911;DHT22;6523;49.758;6.120;2022-11-13T06:23:35;2.30;99.90
12911;DHT22;6523;49.758;6.120;2022-11-13T06:26:06;2.30;99.90
12911;DHT22;6523;49.758;6.120;2022-11-13T06:28:33;2.30;99.90
12911;DHT22;6523;49.758;6.120;2022-11-13T06:31:17;2.20;99.90
12911;DHT22;6523;49.758;6.120;2022-11-13T06:33:43;2.20;99.90
12911;DHT22;6523;49.758;6.120;2022-11-13T06:36:13;2.10;99.90
12911;DHT22;6523;49.758;6.120;2022-11-13T06:38:39;2.10;99.90
12911;DHT22;6523;49.758;6.120;2022-11-13T06:41:06;2.20;99.90
12911;DHT22;6523;49.758;6.120;2022-11-13T06:43:33;2.20;99.90
12911;DHT22;6523;49.758;6.120;2022-11-13T06:46:06;2.20;99.90
12911;DHT22;6523;49.758;6.120;2022-11-13T06:48:32;2.10;99.90
12911;DHT22;6523;49.758;6.120;2022-11-13T06:51:02;2.10;99.90
12911;DHT22;6523;49.758;6.120;2022-11-13T06:53:29;2.00;99.90
12911;DHT22;6523;49.758;6.120;2022-11-13T06:55:55;2.10;99.90
12911;DHT22;6523;49.758;6.120;2022-11-13T06:58:20;2.00;99.90
12911;DHT22;6523;49.758;6.120;2022-11-13T07:00:46;2.00;99.90
12911;DHT22;6523;49.758;6.120;2022-11-13T07:03:19;2.00;99.90
12911;DHT22;6523;49.758;6.120;2022-11-13T07:05:45;2.00;99.90
12911;DHT22;6523;49.758;6.120;2022-11-13T07:08:11;1.90;99.90
12911;DHT22;6523;49.758;6.120;2022-11-13T07:10:38;1.90;99.90
12911;DHT22;6523;49.758;6.120;2022-11-13T07:13:04;2.00;99.90
12911;DHT22;6523;49.758;6.120;2022-11-13T07:15:33;1.90;99.90
12911;DHT22;6523;49.758;6.120;2022-11-13T07:18:00;1.90;99.90
12911;DHT22;6523;49.758;6.120;2022-11-13T07:20:26;1.90;99.90
12911;DHT22;6523;49.758;6.120;2022-11-13T07:22:57;1.90;99.90
12911;DHT22;6523;49.758;6.120;2022-11-13T07:25:24;1.80;99.90
12911;DHT22;6523;49.758;6.120;2022-11-13T07:27:50;1.80;99.90
12911;DHT22;6523;49.758;6.120;2022-11-13T07:30:16;1.90;99.90
12911;DHT22;6523;49.758;6.120;2022-11-13T07:32:42;1.90;99.90
12911;DHT22;6523;49.758;6.120;2022-11-13T07:35:08;2.00;99.90
12911;DHT22;6523;49.758;6.120;2022-11-13T07:37:34;1.90;99.90
12911;DHT22;6523;49.758;6.120;2022-11-13T07:39:59;2.00;99.90
12911;DHT22;6523;49.758;6.120;2022-11-13T07:42:25;2.10;99.90
12911;DHT22;6523;49.758;6.120;2022-11-13T07:44:51;2.00;99.90
12911;DHT22;6523;49.758;6.120;2022-11-13T07:47:16;2.10;99.90
12911;DHT22;6523;49.758;6.120;2022-11-13T07:49:42;2.10;99.90
12911;DHT22;6523;49.758;6.120;2022-11-13T07:52:08;2.10;99.90
12911;DHT22;6523;49.758;6.120;2022-11-13T07:54:34;1.80;99.90
12911;DHT22;6523;49.758;6.120;2022-11-13T07:56:59;1.80;99.90
12911;DHT22;6523;49.758;6.120;2022-11-13T07:59:25;1.80;99.90
12911;DHT22;6523;49.758;6.120;2022-11-13T08:01:51;2.00;99.90
12911;DHT22;6523;49.758;6.120;2022-11-13T08:04:16;2.20;99.90
12911;DHT22;6523;49.758;6.120;2022-11-13T08:06:42;2.30;99.90
12911;DHT22;6523;49.758;6.120;2022-11-13T08:09:08;2.20;99.90
12911;DHT22;6523;49.758;6.120;2022-11-13T08:11:34;2.30;99.90
12911;DHT22;6523;49.758;6.120;2022-11-13T08:13:59;2.20;99.90
12911;DHT22;6523;49.758;6.120;2022-11-13T08:16:25;2.40;99.90
12911;DHT22;6523;49.758;6.120;2022-11-13T08:18:51;2.40;99.90
12911;DHT22;6523;49.758;6.120;2022-11-13T08:21:17;2.40;99.90
12911;DHT22;6523;49.758;6.120;2022-11-13T08:23:42;2.40;99.90
12911;DHT22;6523;49.758;6.120;2022-11-13T08:26:09;2.50;99.90
12911;DHT22;6523;49.758;6.120;2022-11-13T08:28:35;2.50;99.90
12911;DHT22;6523;49.758;6.120;2022-11-13T08:31:01;2.50;99.90
12911;DHT22;6523;49.758;6.120;2022-11-13T08:33:28;2.60;99.90
12911;DHT22;6523;49.758;6.120;2022-11-13T08:35:54;2.70;99.90
12911;DHT22;6523;49.758;6.120;2022-11-13T08:38:21;2.60;99.90
12911;DHT22;6523;49.758;6.120;2022-11-13T08:40:46;2.80;99.90
12911;DHT22;6523;49.758;6.120;2022-11-13T08:43:12;2.80;99.90
12911;DHT22;6523;49.758;6.120;2022-11-13T08:45:38;2.90;99.90
12911;DHT22;6523;49.758;6.120;2022-11-13T08:48:04;3.00;99.90
12911;DHT22;6523;49.758;6.120;2022-11-13T08:50:31;3.10;99.90
12911;DHT22;6523;49.758;6.120;2022-11-13T08:52:58;3.10;99.90
12911;DHT22;6523;49.758;6.120;2022-11-13T08:55:24;3.20;99.90
12911;DHT22;6523;49.758;6.120;2022-11-13T08:57:51;3.40;99.90
12911;DHT22;6523;49.758;6.120;2022-11-13T09:00:17;3.20;99.90
12911;DHT22;6523;49.758;6.120;2022-11-13T09:02:43;3.30;99.90
12911;DHT22;6523;49.758;6.120;2022-11-13T09:05:09;3.40;99.90
12911;DHT22;6523;49.758;6.120;2022-11-13T09:07:35;3.50;99.90
12911;DHT22;6523;49.758;6.120;2022-11-13T09:10:00;3.30;99.90
12911;DHT22;6523;49.758;6.120;2022-11-13T09:12:26;3.60;99.90
12911;DHT22;6523;49.758;6.120;2022-11-13T09:14:51;3.40;99.90
12911;DHT22;6523;49.758;6.120;2022-11-13T09:17:17;3.20;99.90
12911;DHT22;6523;49.758;6.120;2022-11-13T09:19:43;3.00;99.90
12911;DHT22;6523;49.758;6.120;2022-11-13T09:22:09;2.80;99.90
12911;DHT22;6523;49.758;6.120;2022-11-13T09:24:35;2.80;99.90
12911;DHT22;6523;49.758;6.120;2022-11-13T09:27:00;2.70;99.90
12911;DHT22;6523;49.758;6.120;2022-11-13T09:29:26;2.90;99.90
12911;DHT22;6523;49.758;6.120;2022-11-13T09:31:53;3.10;99.90
12911;DHT22;6523;49.758;6.120;2022-11-13T09:34:19;3.30;99.90
12911;DHT22;6523;49.758;6.120;2022-11-13T09:36:45;3.70;99.90
12911;DHT22;6523;49.758;6.120;2022-11-13T09:39:10;3.90;99.90
12911;DHT22;6523;49.758;6.120;2022-11-13T09:41:40;3.90;99.90
12911;DHT22;6523;49.758;6.120;2022-11-13T09:44:17;4.10;99.90
12911;DHT22;6523;49.758;6.120;2022-11-13T09:46:48;3.90;99.90
12911;DHT22;6523;49.758;6.120;2022-11-13T09:49:18;4.10;99.90
12911;DHT22;6523;49.758;6.120;2022-11-13T09:51:54;4.30;99.90
12911;DHT22;6523;49.758;6.120;2022-11-13T09:54:21;4.40;99.90
12911;DHT22;6523;49.758;6.120;2022-11-13T09:59:33;4.40;99.90
12911;DHT22;6523;49.758;6.120;2022-11-13T10:02:22;4.50;99.90
12911;DHT22;6523;49.758;6.120;2022-11-13T10:05:11;4.20;99.90
12911;DHT22;6523;49.758;6.120;2022-11-13T10:07:46;4.50;99.90
12911;DHT22;6523;49.758;6.120;2022-11-13T10:10:26;4.40;99.90
12911;DHT22;6523;49.758;6.120;2022-11-13T10:12:57;4.00;99.90
12911;DHT22;6523;49.758;6.120;2022-11-13T10:15:25;4.30;99.90
12911;DHT22;6523;49.758;6.120;2022-11-13T10:17:56;4.50;99.90
12911;DHT22;6523;49.758;6.120;2022-11-13T10:20:36;4.50;99.90
12911;DHT22;6523;49.758;6.120;2022-11-13T10:25:37;4.50;99.90
12911;DHT22;6523;49.758;6.120;2022-11-13T10:28:15;4.40;99.90
12911;DHT22;6523;49.758;6.120;2022-11-13T10:30:41;4.70;99.90
12911;DHT22;6523;49.758;6.120;2022-11-13T10:33:08;5.10;99.90
12911;DHT22;6523;49.758;6.120;2022-11-13T10:35:50;5.60;99.90
12911;DHT22;6523;49.758;6.120;2022-11-13T10:38:39;6.00;99.90
12911;DHT22;6523;49.758;6.120;2022-11-13T10:41:12;6.30;99.90
12911;DHT22;6523;49.758;6.120;2022-11-13T10:44:06;6.30;99.90
12911;DHT22;6523;49.758;6.120;2022-11-13T10:46:33;6.50;99.90
12911;DHT22;6523;49.758;6.120;2022-11-13T10:49:17;6.90;99.90
12911;DHT22;6523;49.758;6.120;2022-11-13T10:51:43;6.90;99.90
12911;DHT22;6523;49.758;6.120;2022-11-13T10:54:24;7.00;99.90
12911;DHT22;6523;49.758;6.120;2022-11-13T10:57:02;7.30;99.90
12911;DHT22;6523;49.758;6.120;2022-11-13T10:59:40;7.30;99.90
12911;DHT22;6523;49.758;6.120;2022-11-13T11:02:17;7.80;99.90
12911;DHT22;6523;49.758;6.120;2022-11-13T11:04:43;8.00;99.90
12911;DHT22;6523;49.758;6.120;2022-11-13T11:07:21;8.10;99.90
12911;DHT22;6523;49.758;6.120;2022-11-13T11:09:48;8.00;99.90
12911;DHT22;6523;49.758;6.120;2022-11-13T11:12:20;8.00;99.90
12911;DHT22;6523;49.758;6.120;2022-11-13T11:17:18;8.20;99.90
12911;DHT22;6523;49.758;6.120;2022-11-13T11:20:06;8.40;99.90
12911;DHT22;6523;49.758;6.120;2022-11-13T11:22:35;9.20;99.90
12911;DHT22;6523;49.758;6.120;2022-11-13T11:25:14;9.50;99.90
12911;DHT22;6523;49.758;6.120;2022-11-13T11:27:49;9.80;99.90
12911;DHT22;6523;49.758;6.120;2022-11-13T11:30:21;9.90;99.90
12911;DHT22;6523;49.758;6.120;2022-11-13T11:32:53;9.80;99.90
12911;DHT22;6523;49.758;6.120;2022-11-13T11:35:25;10.00;99.90
12911;DHT22;6523;49.758;6.120;2022-11-13T11:38:09;10.20;99.90
12911;DHT22;6523;49.758;6.120;2022-11-13T11:40:40;10.50;99.90
12911;DHT22;6523;49.758;6.120;2022-11-13T11:43:19;10.80;99.90
12911;DHT22;6523;49.758;6.120;2022-11-13T11:45:48;11.30;99.90
12911;DHT22;6523;49.758;6.120;2022-11-13T11:48:20;11.50;99.90
12911;DHT22;6523;49.758;6.120;2022-11-13T11:56:19;12.10;99.90
12911;DHT22;6523;49.758;6.120;2022-11-13T12:09:40;13.10;99.90
12911;DHT22;6523;49.758;6.120;2022-11-13T12:17:40;14.00;99.90
12911;DHT22;6523;49.758;6.120;2022-11-13T12:25:48;14.70;99.90
12911;DHT22;6523;49.758;6.120;2022-11-13T12:28:37;13.90;99.90
12911;DHT22;6523;49.758;6.120;2022-11-13T12:36:51;14.50;99.90
12911;DHT22;6523;49.758;6.120;2022-11-13T12:44:28;14.70;99.90
12911;DHT22;6523;49.758;6.120;2022-11-13T12:46:56;15.10;99.90
12911;DHT22;6523;49.758;6.120;2022-11-13T12:52:20;15.30;99.90
12911;DHT22;6523;49.758;6.120;2022-11-13T12:54:47;15.40;99.90
12911;DHT22;6523;49.758;6.120;2022-11-13T12:59:48;15.20;99.90
12911;DHT22;6523;49.758;6.120;2022-11-13T13:13:30;15.80;99.90
12911;DHT22;6523;49.758;6.120;2022-11-13T13:16:01;16.00;99.90
12911;DHT22;6523;49.758;6.120;2022-11-13T13:18:30;16.20;99.90
12911;DHT22;6523;49.758;6.120;2022-11-13T13:23:43;16.20;99.90
12911;DHT22;6523;49.758;6.120;2022-11-13T13:28:39;16.10;99.90
12911;DHT22;6523;49.758;6.120;2022-11-13T13:31:35;16.00;99.90
12911;DHT22;6523;49.758;6.120;2022-11-13T13:37:28;16.40;99.90
12911;DHT22;6523;49.758;6.120;2022-11-13T13:43:31;16.80;99.90
12911;DHT22;6523;49.758;6.120;2022-11-13T13:48:38;16.80;99.90
12911;DHT22;6523;49.758;6.120;2022-11-13T13:53:52;16.70;99.90
12911;DHT22;6523;49.758;6.120;2022-11-13T13:56:20;16.70;99.90
12911;DHT22;6523;49.758;6.120;2022-11-13T13:58:46;16.40;99.90
12911;DHT22;6523;49.758;6.120;2022-11-13T14:01:23;16.40;99.90
12911;DHT22;6523;49.758;6.120;2022-11-13T14:04:05;16.30;99.90
12911;DHT22;6523;49.758;6.120;2022-11-13T14:06:50;16.10;99.90
12911;DHT22;6523;49.758;6.120;2022-11-13T14:09:20;15.70;99.90
12911;DHT22;6523;49.758;6.120;2022-11-13T14:11:46;15.50;99.90
12911;DHT22;6523;49.758;6.120;2022-11-13T14:14:20;15.20;99.90
12911;DHT22;6523;49.758;6.120;2022-11-13T14:16:51;15.30;99.90
12911;DHT22;6523;49.758;6.120;2022-11-13T14:19:18;15.30;99.90
12911;DHT22;6523;49.758;6.120;2022-11-13T14:21:46;15.50;99.90
12911;DHT22;6523;49.758;6.120;2022-11-13T14:24:22;15.70;99.90
12911;DHT22;6523;49.758;6.120;2022-11-13T14:26:50;15.80;99.90
12911;DHT22;6523;49.758;6.120;2022-11-13T14:29:34;15.10;99.90
12911;DHT22;6523;49.758;6.120;2022-11-13T14:34:47;15.10;99.90
12911;DHT22;6523;49.758;6.120;2022-11-13T14:39:49;14.80;99.90
12911;DHT22;6523;49.758;6.120;2022-11-13T14:44:49;14.30;99.90
12911;DHT22;6523;49.758;6.120;2022-11-13T14:47:26;14.30;99.90
12911;DHT22;6523;49.758;6.120;2022-11-13T14:49:53;14.20;99.90
12911;DHT22;6523;49.758;6.120;2022-11-13T14:52:27;14.00;99.90
12911;DHT22;6523;49.758;6.120;2022-11-13T14:55:01;13.90;99.90
12911;DHT22;6523;49.758;6.120;2022-11-13T14:57:27;13.80;99.90
12911;DHT22;6523;49.758;6.120;2022-11-13T14:59:53;13.80;99.90
12911;DHT22;6523;49.758;6.120;2022-11-13T15:02:19;13.40;99.90
12911;DHT22;6523;49.758;6.120;2022-11-13T15:04:44;13.20;99.90
12911;DHT22;6523;49.758;6.120;2022-11-13T15:07:31;13.20;99.90
12911;DHT22;6523;49.758;6.120;2022-11-13T15:09:57;12.90;99.90
12911;DHT22;6523;49.758;6.120;2022-11-13T15:12:23;12.70;99.90
12911;DHT22;6523;49.758;6.120;2022-11-13T15:14:49;12.70;99.90
12911;DHT22;6523;49.758;6.120;2022-11-13T15:17:17;12.30;99.90
12911;DHT22;6523;49.758;6.120;2022-11-13T15:19:45;12.00;99.90
12911;DHT22;6523;49.758;6.120;2022-11-13T15:22:13;11.90;99.90
12911;DHT22;6523;49.758;6.120;2022-11-13T15:24:39;11.80;99.90
12911;DHT22;6523;49.758;6.120;2022-11-13T15:27:05;11.70;99.90
12911;DHT22;6523;49.758;6.120;2022-11-13T15:29:31;11.60;99.90
12911;DHT22;6523;49.758;6.120;2022-11-13T15:31:57;11.50;99.90
12911;DHT22;6523;49.758;6.120;2022-11-13T15:34:23;11.40;99.90
12911;DHT22;6523;49.758;6.120;2022-11-13T15:36:48;11.30;99.90
12911;DHT22;6523;49.758;6.120;2022-11-13T15:39:15;11.10;99.90
12911;DHT22;6523;49.758;6.120;2022-11-13T15:41:41;10.90;99.90
12911;DHT22;6523;49.758;6.120;2022-11-13T15:44:12;11.00;99.90
12911;DHT22;6523;49.758;6.120;2022-11-13T15:46:38;10.70;99.90
12911;DHT22;6523;49.758;6.120;2022-11-13T15:49:03;10.80;99.90
12911;DHT22;6523;49.758;6.120;2022-11-13T15:51:36;10.90;99.90
12911;DHT22;6523;49.758;6.120;2022-11-13T15:56:40;10.40;99.90
12911;DHT22;6523;49.758;6.120;2022-11-13T15:59:10;10.30;99.90
12911;DHT22;6523;49.758;6.120;2022-11-13T16:01:36;10.20;99.90
12911;DHT22;6523;49.758;6.120;2022-11-13T16:04:01;9.90;99.90
12911;DHT22;6523;49.758;6.120;2022-11-13T16:06:30;9.60;99.90
12911;DHT22;6523;49.758;6.120;2022-11-13T16:08:58;9.60;99.90
12911;DHT22;6523;49.758;6.120;2022-11-13T16:11:24;9.60;99.90
12911;DHT22;6523;49.758;6.120;2022-11-13T16:13:50;9.60;99.90
12911;DHT22;6523;49.758;6.120;2022-11-13T16:18:43;9.40;99.90
12911;DHT22;6523;49.758;6.120;2022-11-13T16:21:11;9.30;99.90
12911;DHT22;6523;49.758;6.120;2022-11-13T16:23:37;9.10;99.90
12911;DHT22;6523;49.758;6.120;2022-11-13T16:26:04;8.90;99.90
12911;DHT22;6523;49.758;6.120;2022-11-13T16:28:30;8.80;99.90
12911;DHT22;6523;49.758;6.120;2022-11-13T16:30:55;8.80;99.90
12911;DHT22;6523;49.758;6.120;2022-11-13T16:33:22;8.80;99.90
12911;DHT22;6523;49.758;6.120;2022-11-13T16:35:48;8.70;99.90
12911;DHT22;6523;49.758;6.120;2022-11-13T16:38:14;8.50;99.90
12911;DHT22;6523;49.758;6.120;2022-11-13T16:40:40;8.30;99.90
12911;DHT22;6523;49.758;6.120;2022-11-13T16:43:10;8.20;99.90
12911;DHT22;6523;49.758;6.120;2022-11-13T16:45:37;8.00;99.90
12911;DHT22;6523;49.758;6.120;2022-11-13T16:48:12;7.90;99.90
12911;DHT22;6523;49.758;6.120;2022-11-13T16:50:38;8.00;99.90
12911;DHT22;6523;49.758;6.120;2022-11-13T16:53:05;7.90;99.90
12911;DHT22;6523;49.758;6.120;2022-11-13T16:55:31;7.50;99.90
12911;DHT22;6523;49.758;6.120;2022-11-13T16:57:56;7.40;99.90
12911;DHT22;6523;49.758;6.120;2022-11-13T17:00:23;7.60;99.90
12911;DHT22;6523;49.758;6.120;2022-11-13T17:02:50;7.70;99.90
12911;DHT22;6523;49.758;6.120;2022-11-13T17:05:17;7.30;99.90
12911;DHT22;6523;49.758;6.120;2022-11-13T17:07:43;7.30;99.90
12911;DHT22;6523;49.758;6.120;2022-11-13T17:10:13;7.30;99.90
12911;DHT22;6523;49.758;6.120;2022-11-13T17:12:39;7.20;99.90
12911;DHT22;6523;49.758;6.120;2022-11-13T17:15:06;7.20;99.90
12911;DHT22;6523;49.758;6.120;2022-11-13T17:17:32;7.20;99.90
12911;DHT22;6523;49.758;6.120;2022-11-13T17:19:57;7.30;99.90
12911;DHT22;6523;49.758;6.120;2022-11-13T17:22:23;7.10;99.90
12911;DHT22;6523;49.758;6.120;2022-11-13T17:24:49;7.10;99.90
12911;DHT22;6523;49.758;6.120;2022-11-13T17:27:14;7.00;99.90
12911;DHT22;6523;49.758;6.120;2022-11-13T17:29:40;6.80;99.90
12911;DHT22;6523;49.758;6.120;2022-11-13T17:32:06;6.90;99.90
12911;DHT22;6523;49.758;6.120;2022-11-13T17:34:31;6.90;99.90
12911;DHT22;6523;49.758;6.120;2022-11-13T17:36:57;6.90;99.90
12911;DHT22;6523;49.758;6.120;2022-11-13T17:39:23;7.00;99.90
12911;DHT22;6523;49.758;6.120;2022-11-13T17:41:48;7.00;99.90
12911;DHT22;6523;49.758;6.120;2022-11-13T17:44:17;7.10;99.90
12911;DHT22;6523;49.758;6.120;2022-11-13T17:46:43;7.20;99.90
12911;DHT22;6523;49.758;6.120;2022-11-13T17:49:09;6.90;99.90